<?xml version="1.0" encoding="UTF-8" standalone="no" ?>
<gpx xmlns="http://www.topografix.com/GPX/1/1" xmlns:xsi="http://www.w3.org/2001/XMLSchema-instance" xsi:schemaLocation="http://www.topografix.com/GPX/1/1 http://www.topografix.com/GPX/1/1/gpx.xsd" version="1.1" creator="VisuGPX - https://www.visugpx.com">
  <metadata>
    <name>Vallée de l'Orne autour de Clécy</name>
    <desc><![CDATA[randonnée en Suisse Normnde]]></desc>
  </metadata>
  <wpt lat="48.91404" lon="-0.47614">
    <ele>47</ele>
    <name><![CDATA[Bord de l'Orne à Clécy]]></name>
  </wpt>
  <wpt lat="48.91651" lon="-0.47644">
    <ele>43</ele>
    <name><![CDATA[Pont de Vey, tout droit ]]></name>
  </wpt>
  <wpt lat="48.91877" lon="-0.47673">
    <ele>47</ele>
    <name><![CDATA[D133b, à gauche]]></name>
  </wpt>
  <wpt lat="48.92863" lon="-0.48106">
    <ele>59</ele>
    <name><![CDATA[Chemin escarpé]]></name>
  </wpt>
  <wpt lat="48.92992" lon="-0.4762">
    <ele>153</ele>
    <name><![CDATA[PR à gauche]]></name>
  </wpt>
  <wpt lat="48.93068" lon="-0.47088">
    <ele>213</ele>
    <name><![CDATA[À droite au carrefour]]></name>
  </wpt>
  <wpt lat="48.92255" lon="-0.45556">
    <ele>240</ele>
    <name><![CDATA[À droite au carrefour en T]]></name>
  </wpt>
  <wpt lat="48.9181" lon="-0.45702">
    <ele>138</ele>
    <name><![CDATA[Sourdeval]]></name>
  </wpt>
  <wpt lat="48.91303" lon="-0.45328">
    <ele>132</ele>
    <name><![CDATA[Jonction avec la D113]]></name>
  </wpt>
  <wpt lat="48.90966" lon="-0.45081">
    <ele>146</ele>
    <name><![CDATA[Jonction avec le GR36]]></name>
  </wpt>
  <wpt lat="48.914" lon="-0.47614">
    <ele>47</ele>
    <name><![CDATA[Bord de l'Orne à Clécy]]></name>
  </wpt>
  <trk>
    <name><![CDATA[Vallée de l'Orne autour de Clécy]]></name>
    <trkseg>
      <trkpt lat="48.91404" lon="-0.47614">
        <ele>47</ele>
        <time>2019-01-14T17:48:11+01:00</time>
      </trkpt>
      <trkpt lat="48.91435" lon="-0.47614">
        <ele>47</ele>
        <time>2019-01-14T17:48:16+01:00</time>
      </trkpt>
      <trkpt lat="48.91457" lon="-0.47613">
        <ele>46</ele>
        <time>2019-01-14T17:48:21+01:00</time>
      </trkpt>
      <trkpt lat="48.91499" lon="-0.47622">
        <ele>46</ele>
        <time>2019-01-14T17:48:26+01:00</time>
      </trkpt>
      <trkpt lat="48.91522" lon="-0.47628">
        <ele>46</ele>
        <time>2019-01-14T17:48:31+01:00</time>
      </trkpt>
      <trkpt lat="48.91541" lon="-0.47634">
        <ele>46</ele>
        <time>2019-01-14T17:48:36+01:00</time>
      </trkpt>
      <trkpt lat="48.91592" lon="-0.47647">
        <ele>45</ele>
        <time>2019-01-14T17:48:41+01:00</time>
      </trkpt>
      <trkpt lat="48.9162" lon="-0.4765">
        <ele>45</ele>
        <time>2019-01-14T17:48:46+01:00</time>
      </trkpt>
      <trkpt lat="48.9164" lon="-0.47651">
        <ele>45</ele>
        <time>2019-01-14T17:48:51+01:00</time>
      </trkpt>
      <trkpt lat="48.91651" lon="-0.47644">
        <ele>43</ele>
        <time>2019-01-14T17:48:56+01:00</time>
      </trkpt>
      <trkpt lat="48.91659" lon="-0.47652">
        <ele>44</ele>
        <time>2019-01-14T17:49:01+01:00</time>
      </trkpt>
      <trkpt lat="48.91682" lon="-0.47661">
        <ele>45</ele>
        <time>2019-01-14T17:49:06+01:00</time>
      </trkpt>
      <trkpt lat="48.91699" lon="-0.47671">
        <ele>47</ele>
        <time>2019-01-14T17:49:11+01:00</time>
      </trkpt>
      <trkpt lat="48.91724" lon="-0.47676">
        <ele>47</ele>
        <time>2019-01-14T17:49:16+01:00</time>
      </trkpt>
      <trkpt lat="48.91753" lon="-0.47675">
        <ele>47</ele>
        <time>2019-01-14T17:49:21+01:00</time>
      </trkpt>
      <trkpt lat="48.91822" lon="-0.47673">
        <ele>47</ele>
        <time>2019-01-14T17:49:26+01:00</time>
      </trkpt>
      <trkpt lat="48.91832" lon="-0.47684">
        <ele>48</ele>
        <time>2019-01-14T17:49:31+01:00</time>
      </trkpt>
      <trkpt lat="48.91842" lon="-0.47679">
        <ele>47</ele>
        <time>2019-01-14T17:49:36+01:00</time>
      </trkpt>
      <trkpt lat="48.91857" lon="-0.47677">
        <ele>47</ele>
        <time>2019-01-14T17:49:41+01:00</time>
      </trkpt>
      <trkpt lat="48.91877" lon="-0.47673">
        <ele>47</ele>
        <time>2019-01-14T17:49:46+01:00</time>
      </trkpt>
      <trkpt lat="48.91889" lon="-0.4765">
        <ele>45</ele>
        <time>2019-01-14T17:49:51+01:00</time>
      </trkpt>
      <trkpt lat="48.91909" lon="-0.47645">
        <ele>45</ele>
        <time>2019-01-14T17:49:56+01:00</time>
      </trkpt>
      <trkpt lat="48.91933" lon="-0.47633">
        <ele>45</ele>
        <time>2019-01-14T17:50:01+01:00</time>
      </trkpt>
      <trkpt lat="48.91994" lon="-0.47609">
        <ele>46</ele>
        <time>2019-01-14T17:50:06+01:00</time>
      </trkpt>
      <trkpt lat="48.92046" lon="-0.47587">
        <ele>47</ele>
        <time>2019-01-14T17:50:11+01:00</time>
      </trkpt>
      <trkpt lat="48.92069" lon="-0.47581">
        <ele>48</ele>
        <time>2019-01-14T17:50:16+01:00</time>
      </trkpt>
      <trkpt lat="48.92137" lon="-0.47566">
        <ele>50</ele>
        <time>2019-01-14T17:50:21+01:00</time>
      </trkpt>
      <trkpt lat="48.92164" lon="-0.47561">
        <ele>50</ele>
        <time>2019-01-14T17:50:26+01:00</time>
      </trkpt>
      <trkpt lat="48.92224" lon="-0.47543">
        <ele>49</ele>
        <time>2019-01-14T17:50:31+01:00</time>
      </trkpt>
      <trkpt lat="48.92263" lon="-0.47536">
        <ele>49</ele>
        <time>2019-01-14T17:50:36+01:00</time>
      </trkpt>
      <trkpt lat="48.9227" lon="-0.47546">
        <ele>50</ele>
        <time>2019-01-14T17:50:41+01:00</time>
      </trkpt>
      <trkpt lat="48.92294" lon="-0.47657">
        <ele>52</ele>
        <time>2019-01-14T17:50:46+01:00</time>
      </trkpt>
      <trkpt lat="48.92304" lon="-0.4771">
        <ele>53</ele>
        <time>2019-01-14T17:50:51+01:00</time>
      </trkpt>
      <trkpt lat="48.92318" lon="-0.47768">
        <ele>53</ele>
        <time>2019-01-14T17:50:56+01:00</time>
      </trkpt>
      <trkpt lat="48.9234" lon="-0.47839">
        <ele>54</ele>
        <time>2019-01-14T17:51:01+01:00</time>
      </trkpt>
      <trkpt lat="48.9236" lon="-0.47874">
        <ele>53</ele>
        <time>2019-01-14T17:51:06+01:00</time>
      </trkpt>
      <trkpt lat="48.92376" lon="-0.47905">
        <ele>53</ele>
        <time>2019-01-14T17:51:11+01:00</time>
      </trkpt>
      <trkpt lat="48.9239" lon="-0.47931">
        <ele>52</ele>
        <time>2019-01-14T17:51:16+01:00</time>
      </trkpt>
      <trkpt lat="48.92441" lon="-0.47996">
        <ele>46</ele>
        <time>2019-01-14T17:51:21+01:00</time>
      </trkpt>
      <trkpt lat="48.92446" lon="-0.48031">
        <ele>43</ele>
        <time>2019-01-14T17:51:26+01:00</time>
      </trkpt>
      <trkpt lat="48.92442" lon="-0.48047">
        <ele>42</ele>
        <time>2019-01-14T17:51:31+01:00</time>
      </trkpt>
      <trkpt lat="48.92439" lon="-0.48062">
        <ele>41</ele>
        <time>2019-01-14T17:51:36+01:00</time>
      </trkpt>
      <trkpt lat="48.9247" lon="-0.48065">
        <ele>40</ele>
        <time>2019-01-14T17:51:41+01:00</time>
      </trkpt>
      <trkpt lat="48.92482" lon="-0.48056">
        <ele>39</ele>
        <time>2019-01-14T17:51:46+01:00</time>
      </trkpt>
      <trkpt lat="48.92501" lon="-0.48031">
        <ele>39</ele>
        <time>2019-01-14T17:51:51+01:00</time>
      </trkpt>
      <trkpt lat="48.92527" lon="-0.48002">
        <ele>39</ele>
        <time>2019-01-14T17:51:56+01:00</time>
      </trkpt>
      <trkpt lat="48.92537" lon="-0.47991">
        <ele>39</ele>
        <time>2019-01-14T17:52:01+01:00</time>
      </trkpt>
      <trkpt lat="48.92561" lon="-0.47993">
        <ele>37</ele>
        <time>2019-01-14T17:52:06+01:00</time>
      </trkpt>
      <trkpt lat="48.92576" lon="-0.47995">
        <ele>36</ele>
        <time>2019-01-14T17:52:11+01:00</time>
      </trkpt>
      <trkpt lat="48.92588" lon="-0.47995">
        <ele>35</ele>
        <time>2019-01-14T17:52:16+01:00</time>
      </trkpt>
      <trkpt lat="48.92597" lon="-0.47985">
        <ele>36</ele>
        <time>2019-01-14T17:52:21+01:00</time>
      </trkpt>
      <trkpt lat="48.92606" lon="-0.47979">
        <ele>36</ele>
        <time>2019-01-14T17:52:26+01:00</time>
      </trkpt>
      <trkpt lat="48.92619" lon="-0.48014">
        <ele>34</ele>
        <time>2019-01-14T17:52:31+01:00</time>
      </trkpt>
      <trkpt lat="48.92623" lon="-0.48031">
        <ele>34</ele>
        <time>2019-01-14T17:52:36+01:00</time>
      </trkpt>
      <trkpt lat="48.92671" lon="-0.4803">
        <ele>33</ele>
        <time>2019-01-14T17:52:41+01:00</time>
      </trkpt>
      <trkpt lat="48.92718" lon="-0.4803">
        <ele>36</ele>
        <time>2019-01-14T17:52:46+01:00</time>
      </trkpt>
      <trkpt lat="48.92732" lon="-0.48031">
        <ele>37</ele>
        <time>2019-01-14T17:52:51+01:00</time>
      </trkpt>
      <trkpt lat="48.92748" lon="-0.4803">
        <ele>38</ele>
        <time>2019-01-14T17:52:56+01:00</time>
      </trkpt>
      <trkpt lat="48.92751" lon="-0.48053">
        <ele>38</ele>
        <time>2019-01-14T17:53:01+01:00</time>
      </trkpt>
      <trkpt lat="48.92752" lon="-0.48105">
        <ele>38</ele>
        <time>2019-01-14T17:53:06+01:00</time>
      </trkpt>
      <trkpt lat="48.92752" lon="-0.48146">
        <ele>38</ele>
        <time>2019-01-14T17:53:11+01:00</time>
      </trkpt>
      <trkpt lat="48.92756" lon="-0.48171">
        <ele>39</ele>
        <time>2019-01-14T17:53:16+01:00</time>
      </trkpt>
      <trkpt lat="48.92764" lon="-0.48187">
        <ele>40</ele>
        <time>2019-01-14T17:53:21+01:00</time>
      </trkpt>
      <trkpt lat="48.92781" lon="-0.48208">
        <ele>42</ele>
        <time>2019-01-14T17:53:26+01:00</time>
      </trkpt>
      <trkpt lat="48.92784" lon="-0.48224">
        <ele>42</ele>
        <time>2019-01-14T17:53:31+01:00</time>
      </trkpt>
      <trkpt lat="48.9279" lon="-0.48278">
        <ele>42</ele>
        <time>2019-01-14T17:53:36+01:00</time>
      </trkpt>
      <trkpt lat="48.92797" lon="-0.48296">
        <ele>42</ele>
        <time>2019-01-14T17:53:41+01:00</time>
      </trkpt>
      <trkpt lat="48.92807" lon="-0.48314">
        <ele>44</ele>
        <time>2019-01-14T17:53:46+01:00</time>
      </trkpt>
      <trkpt lat="48.92818" lon="-0.48347">
        <ele>44</ele>
        <time>2019-01-14T17:53:51+01:00</time>
      </trkpt>
      <trkpt lat="48.92812" lon="-0.48237">
        <ele>46</ele>
        <time>2019-01-14T17:53:56+01:00</time>
      </trkpt>
      <trkpt lat="48.92813" lon="-0.48194">
        <ele>47</ele>
        <time>2019-01-14T17:54:01+01:00</time>
      </trkpt>
      <trkpt lat="48.92817" lon="-0.48152">
        <ele>49</ele>
        <time>2019-01-14T17:54:06+01:00</time>
      </trkpt>
      <trkpt lat="48.92819" lon="-0.48126">
        <ele>49</ele>
        <time>2019-01-14T17:54:11+01:00</time>
      </trkpt>
      <trkpt lat="48.9284" lon="-0.48121">
        <ele>53</ele>
        <time>2019-01-14T17:54:16+01:00</time>
      </trkpt>
      <trkpt lat="48.92863" lon="-0.48106">
        <ele>59</ele>
        <time>2019-01-14T17:54:21+01:00</time>
      </trkpt>
      <trkpt lat="48.92879" lon="-0.48098">
        <ele>64</ele>
        <time>2019-01-14T17:54:26+01:00</time>
      </trkpt>
      <trkpt lat="48.92906" lon="-0.48063">
        <ele>72</ele>
        <time>2019-01-14T17:54:31+01:00</time>
      </trkpt>
      <trkpt lat="48.92921" lon="-0.48039">
        <ele>77</ele>
        <time>2019-01-14T17:54:36+01:00</time>
      </trkpt>
      <trkpt lat="48.92934" lon="-0.48016">
        <ele>83</ele>
        <time>2019-01-14T17:54:41+01:00</time>
      </trkpt>
      <trkpt lat="48.92953" lon="-0.47958">
        <ele>95</ele>
        <time>2019-01-14T17:54:46+01:00</time>
      </trkpt>
      <trkpt lat="48.92965" lon="-0.47914">
        <ele>102</ele>
        <time>2019-01-14T17:54:51+01:00</time>
      </trkpt>
      <trkpt lat="48.92988" lon="-0.47873">
        <ele>111</ele>
        <time>2019-01-14T17:54:56+01:00</time>
      </trkpt>
      <trkpt lat="48.92955" lon="-0.4788">
        <ele>105</ele>
        <time>2019-01-14T17:55:01+01:00</time>
      </trkpt>
      <trkpt lat="48.92936" lon="-0.47879">
        <ele>102</ele>
        <time>2019-01-14T17:55:06+01:00</time>
      </trkpt>
      <trkpt lat="48.92918" lon="-0.47881">
        <ele>98</ele>
        <time>2019-01-14T17:55:11+01:00</time>
      </trkpt>
      <trkpt lat="48.92914" lon="-0.47876">
        <ele>98</ele>
        <time>2019-01-14T17:55:16+01:00</time>
      </trkpt>
      <trkpt lat="48.92916" lon="-0.47867">
        <ele>101</ele>
        <time>2019-01-14T17:55:21+01:00</time>
      </trkpt>
      <trkpt lat="48.92921" lon="-0.47856">
        <ele>105</ele>
        <time>2019-01-14T17:55:26+01:00</time>
      </trkpt>
      <trkpt lat="48.92915" lon="-0.47831">
        <ele>111</ele>
        <time>2019-01-14T17:55:31+01:00</time>
      </trkpt>
      <trkpt lat="48.9292" lon="-0.47815">
        <ele>115</ele>
        <time>2019-01-14T17:55:36+01:00</time>
      </trkpt>
      <trkpt lat="48.92921" lon="-0.47794">
        <ele>120</ele>
        <time>2019-01-14T17:55:41+01:00</time>
      </trkpt>
      <trkpt lat="48.92925" lon="-0.47778">
        <ele>123</ele>
        <time>2019-01-14T17:55:46+01:00</time>
      </trkpt>
      <trkpt lat="48.9292" lon="-0.47738">
        <ele>129</ele>
        <time>2019-01-14T17:55:51+01:00</time>
      </trkpt>
      <trkpt lat="48.9295" lon="-0.47693">
        <ele>136</ele>
        <time>2019-01-14T17:55:56+01:00</time>
      </trkpt>
      <trkpt lat="48.92951" lon="-0.4768">
        <ele>138</ele>
        <time>2019-01-14T17:56:01+01:00</time>
      </trkpt>
      <trkpt lat="48.92963" lon="-0.47652">
        <ele>143</ele>
        <time>2019-01-14T17:56:06+01:00</time>
      </trkpt>
      <trkpt lat="48.92968" lon="-0.47631">
        <ele>144</ele>
        <time>2019-01-14T17:56:11+01:00</time>
      </trkpt>
      <trkpt lat="48.92977" lon="-0.47612">
        <ele>148</ele>
        <time>2019-01-14T17:56:16+01:00</time>
      </trkpt>
      <trkpt lat="48.92992" lon="-0.4762">
        <ele>153</ele>
        <time>2019-01-14T17:56:21+01:00</time>
      </trkpt>
      <trkpt lat="48.92997" lon="-0.47609">
        <ele>155</ele>
        <time>2019-01-14T17:56:26+01:00</time>
      </trkpt>
      <trkpt lat="48.93014" lon="-0.47592">
        <ele>157</ele>
        <time>2019-01-14T17:56:31+01:00</time>
      </trkpt>
      <trkpt lat="48.93032" lon="-0.47573">
        <ele>158</ele>
        <time>2019-01-14T17:56:36+01:00</time>
      </trkpt>
      <trkpt lat="48.93037" lon="-0.47566">
        <ele>158</ele>
        <time>2019-01-14T17:56:41+01:00</time>
      </trkpt>
      <trkpt lat="48.93035" lon="-0.47553">
        <ele>159</ele>
        <time>2019-01-14T17:56:46+01:00</time>
      </trkpt>
      <trkpt lat="48.9304" lon="-0.47539">
        <ele>160</ele>
        <time>2019-01-14T17:56:51+01:00</time>
      </trkpt>
      <trkpt lat="48.93047" lon="-0.47516">
        <ele>162</ele>
        <time>2019-01-14T17:56:56+01:00</time>
      </trkpt>
      <trkpt lat="48.93058" lon="-0.47511">
        <ele>165</ele>
        <time>2019-01-14T17:57:01+01:00</time>
      </trkpt>
      <trkpt lat="48.93081" lon="-0.47512">
        <ele>169</ele>
        <time>2019-01-14T17:57:06+01:00</time>
      </trkpt>
      <trkpt lat="48.93136" lon="-0.47479">
        <ele>182</ele>
        <time>2019-01-14T17:57:11+01:00</time>
      </trkpt>
      <trkpt lat="48.93157" lon="-0.47423">
        <ele>191</ele>
        <time>2019-01-14T17:57:16+01:00</time>
      </trkpt>
      <trkpt lat="48.93137" lon="-0.47396">
        <ele>192</ele>
        <time>2019-01-14T17:57:21+01:00</time>
      </trkpt>
      <trkpt lat="48.93071" lon="-0.47318">
        <ele>190</ele>
        <time>2019-01-14T17:57:26+01:00</time>
      </trkpt>
      <trkpt lat="48.93067" lon="-0.47298">
        <ele>191</ele>
        <time>2019-01-14T17:57:31+01:00</time>
      </trkpt>
      <trkpt lat="48.93065" lon="-0.47273">
        <ele>194</ele>
        <time>2019-01-14T17:57:36+01:00</time>
      </trkpt>
      <trkpt lat="48.93067" lon="-0.47179">
        <ele>203</ele>
        <time>2019-01-14T17:57:41+01:00</time>
      </trkpt>
      <trkpt lat="48.93068" lon="-0.47088">
        <ele>213</ele>
        <time>2019-01-14T17:57:46+01:00</time>
      </trkpt>
      <trkpt lat="48.93058" lon="-0.4706">
        <ele>214</ele>
        <time>2019-01-14T17:57:51+01:00</time>
      </trkpt>
      <trkpt lat="48.93043" lon="-0.47039">
        <ele>214</ele>
        <time>2019-01-14T17:57:56+01:00</time>
      </trkpt>
      <trkpt lat="48.93014" lon="-0.46996">
        <ele>215</ele>
        <time>2019-01-14T17:58:01+01:00</time>
      </trkpt>
      <trkpt lat="48.92988" lon="-0.46964">
        <ele>210</ele>
        <time>2019-01-14T17:58:06+01:00</time>
      </trkpt>
      <trkpt lat="48.92971" lon="-0.46918">
        <ele>209</ele>
        <time>2019-01-14T17:58:11+01:00</time>
      </trkpt>
      <trkpt lat="48.92958" lon="-0.46874">
        <ele>212</ele>
        <time>2019-01-14T17:58:16+01:00</time>
      </trkpt>
      <trkpt lat="48.9291" lon="-0.46719">
        <ele>223</ele>
        <time>2019-01-14T17:58:21+01:00</time>
      </trkpt>
      <trkpt lat="48.92879" lon="-0.46701">
        <ele>222</ele>
        <time>2019-01-14T17:58:26+01:00</time>
      </trkpt>
      <trkpt lat="48.9284" lon="-0.46692">
        <ele>221</ele>
        <time>2019-01-14T17:58:31+01:00</time>
      </trkpt>
      <trkpt lat="48.92803" lon="-0.46685">
        <ele>219</ele>
        <time>2019-01-14T17:58:36+01:00</time>
      </trkpt>
      <trkpt lat="48.92726" lon="-0.46684">
        <ele>214</ele>
        <time>2019-01-14T17:58:41+01:00</time>
      </trkpt>
      <trkpt lat="48.92612" lon="-0.46627">
        <ele>213</ele>
        <time>2019-01-14T17:58:46+01:00</time>
      </trkpt>
      <trkpt lat="48.92592" lon="-0.46611">
        <ele>215</ele>
        <time>2019-01-14T17:58:51+01:00</time>
      </trkpt>
      <trkpt lat="48.92579" lon="-0.4659">
        <ele>218</ele>
        <time>2019-01-14T17:58:56+01:00</time>
      </trkpt>
      <trkpt lat="48.92558" lon="-0.46542">
        <ele>220</ele>
        <time>2019-01-14T17:59:01+01:00</time>
      </trkpt>
      <trkpt lat="48.92551" lon="-0.4651">
        <ele>221</ele>
        <time>2019-01-14T17:59:06+01:00</time>
      </trkpt>
      <trkpt lat="48.92549" lon="-0.4648">
        <ele>223</ele>
        <time>2019-01-14T17:59:11+01:00</time>
      </trkpt>
      <trkpt lat="48.92554" lon="-0.46401">
        <ele>229</ele>
        <time>2019-01-14T17:59:16+01:00</time>
      </trkpt>
      <trkpt lat="48.92543" lon="-0.4637">
        <ele>231</ele>
        <time>2019-01-14T17:59:21+01:00</time>
      </trkpt>
      <trkpt lat="48.92515" lon="-0.46346">
        <ele>233</ele>
        <time>2019-01-14T17:59:26+01:00</time>
      </trkpt>
      <trkpt lat="48.92412" lon="-0.46311">
        <ele>235</ele>
        <time>2019-01-14T17:59:31+01:00</time>
      </trkpt>
      <trkpt lat="48.92386" lon="-0.46303">
        <ele>235</ele>
        <time>2019-01-14T17:59:36+01:00</time>
      </trkpt>
      <trkpt lat="48.92347" lon="-0.46275">
        <ele>238</ele>
        <time>2019-01-14T17:59:41+01:00</time>
      </trkpt>
      <trkpt lat="48.92326" lon="-0.46243">
        <ele>241</ele>
        <time>2019-01-14T17:59:46+01:00</time>
      </trkpt>
      <trkpt lat="48.9231" lon="-0.46212">
        <ele>240</ele>
        <time>2019-01-14T17:59:51+01:00</time>
      </trkpt>
      <trkpt lat="48.92301" lon="-0.46162">
        <ele>243</ele>
        <time>2019-01-14T17:59:56+01:00</time>
      </trkpt>
      <trkpt lat="48.92294" lon="-0.4611">
        <ele>243</ele>
        <time>2019-01-14T18:00:01+01:00</time>
      </trkpt>
      <trkpt lat="48.92286" lon="-0.46046">
        <ele>243</ele>
        <time>2019-01-14T18:00:06+01:00</time>
      </trkpt>
      <trkpt lat="48.92284" lon="-0.46003">
        <ele>243</ele>
        <time>2019-01-14T18:00:11+01:00</time>
      </trkpt>
      <trkpt lat="48.92289" lon="-0.45954">
        <ele>243</ele>
        <time>2019-01-14T18:00:16+01:00</time>
      </trkpt>
      <trkpt lat="48.92293" lon="-0.45893">
        <ele>242</ele>
        <time>2019-01-14T18:00:21+01:00</time>
      </trkpt>
      <trkpt lat="48.92284" lon="-0.45764">
        <ele>242</ele>
        <time>2019-01-14T18:00:26+01:00</time>
      </trkpt>
      <trkpt lat="48.92281" lon="-0.45723">
        <ele>242</ele>
        <time>2019-01-14T18:00:31+01:00</time>
      </trkpt>
      <trkpt lat="48.92269" lon="-0.45636">
        <ele>240</ele>
        <time>2019-01-14T18:00:36+01:00</time>
      </trkpt>
      <trkpt lat="48.92255" lon="-0.45556">
        <ele>240</ele>
        <time>2019-01-14T18:00:41+01:00</time>
      </trkpt>
      <trkpt lat="48.92186" lon="-0.4563">
        <ele>229</ele>
        <time>2019-01-14T18:00:46+01:00</time>
      </trkpt>
      <trkpt lat="48.92173" lon="-0.45637">
        <ele>226</ele>
        <time>2019-01-14T18:00:51+01:00</time>
      </trkpt>
      <trkpt lat="48.92129" lon="-0.4561">
        <ele>219</ele>
        <time>2019-01-14T18:00:56+01:00</time>
      </trkpt>
      <trkpt lat="48.9208" lon="-0.45583">
        <ele>211</ele>
        <time>2019-01-14T18:01:01+01:00</time>
      </trkpt>
      <trkpt lat="48.92051" lon="-0.45557">
        <ele>207</ele>
        <time>2019-01-14T18:01:06+01:00</time>
      </trkpt>
      <trkpt lat="48.92018" lon="-0.45523">
        <ele>203</ele>
        <time>2019-01-14T18:01:11+01:00</time>
      </trkpt>
      <trkpt lat="48.92005" lon="-0.45497">
        <ele>203</ele>
        <time>2019-01-14T18:01:16+01:00</time>
      </trkpt>
      <trkpt lat="48.91959" lon="-0.4531">
        <ele>204</ele>
        <time>2019-01-14T18:01:21+01:00</time>
      </trkpt>
      <trkpt lat="48.91949" lon="-0.45306">
        <ele>202</ele>
        <time>2019-01-14T18:01:26+01:00</time>
      </trkpt>
      <trkpt lat="48.91923" lon="-0.45379">
        <ele>188</ele>
        <time>2019-01-14T18:01:31+01:00</time>
      </trkpt>
      <trkpt lat="48.91913" lon="-0.45427">
        <ele>180</ele>
        <time>2019-01-14T18:01:36+01:00</time>
      </trkpt>
      <trkpt lat="48.91894" lon="-0.45494">
        <ele>173</ele>
        <time>2019-01-14T18:01:41+01:00</time>
      </trkpt>
      <trkpt lat="48.91858" lon="-0.45575">
        <ele>160</ele>
        <time>2019-01-14T18:01:46+01:00</time>
      </trkpt>
      <trkpt lat="48.91836" lon="-0.45635">
        <ele>148</ele>
        <time>2019-01-14T18:01:51+01:00</time>
      </trkpt>
      <trkpt lat="48.9181" lon="-0.45702">
        <ele>138</ele>
        <time>2019-01-14T18:01:56+01:00</time>
      </trkpt>
      <trkpt lat="48.91801" lon="-0.45696">
        <ele>139</ele>
        <time>2019-01-14T18:02:01+01:00</time>
      </trkpt>
      <trkpt lat="48.91727" lon="-0.45718">
        <ele>136</ele>
        <time>2019-01-14T18:02:06+01:00</time>
      </trkpt>
      <trkpt lat="48.91663" lon="-0.45682">
        <ele>143</ele>
        <time>2019-01-14T18:02:11+01:00</time>
      </trkpt>
      <trkpt lat="48.91629" lon="-0.45649">
        <ele>144</ele>
        <time>2019-01-14T18:02:16+01:00</time>
      </trkpt>
      <trkpt lat="48.91587" lon="-0.456">
        <ele>146</ele>
        <time>2019-01-14T18:02:21+01:00</time>
      </trkpt>
      <trkpt lat="48.91544" lon="-0.45536">
        <ele>145</ele>
        <time>2019-01-14T18:02:26+01:00</time>
      </trkpt>
      <trkpt lat="48.91531" lon="-0.45507">
        <ele>145</ele>
        <time>2019-01-14T18:02:31+01:00</time>
      </trkpt>
      <trkpt lat="48.91491" lon="-0.45397">
        <ele>148</ele>
        <time>2019-01-14T18:02:36+01:00</time>
      </trkpt>
      <trkpt lat="48.91472" lon="-0.45328">
        <ele>149</ele>
        <time>2019-01-14T18:02:41+01:00</time>
      </trkpt>
      <trkpt lat="48.91442" lon="-0.45281">
        <ele>147</ele>
        <time>2019-01-14T18:02:46+01:00</time>
      </trkpt>
      <trkpt lat="48.91419" lon="-0.45266">
        <ele>141</ele>
        <time>2019-01-14T18:02:51+01:00</time>
      </trkpt>
      <trkpt lat="48.9137" lon="-0.4528">
        <ele>138</ele>
        <time>2019-01-14T18:02:56+01:00</time>
      </trkpt>
      <trkpt lat="48.91325" lon="-0.45309">
        <ele>135</ele>
        <time>2019-01-14T18:03:01+01:00</time>
      </trkpt>
      <trkpt lat="48.91303" lon="-0.45328">
        <ele>132</ele>
        <time>2019-01-14T18:03:06+01:00</time>
      </trkpt>
      <trkpt lat="48.91284" lon="-0.45296">
        <ele>133</ele>
        <time>2019-01-14T18:03:11+01:00</time>
      </trkpt>
      <trkpt lat="48.91262" lon="-0.45228">
        <ele>138</ele>
        <time>2019-01-14T18:03:16+01:00</time>
      </trkpt>
      <trkpt lat="48.91247" lon="-0.45223">
        <ele>137</ele>
        <time>2019-01-14T18:03:21+01:00</time>
      </trkpt>
      <trkpt lat="48.91223" lon="-0.45185">
        <ele>136</ele>
        <time>2019-01-14T18:03:26+01:00</time>
      </trkpt>
      <trkpt lat="48.91186" lon="-0.4511">
        <ele>135</ele>
        <time>2019-01-14T18:03:31+01:00</time>
      </trkpt>
      <trkpt lat="48.91165" lon="-0.45093">
        <ele>133</ele>
        <time>2019-01-14T18:03:36+01:00</time>
      </trkpt>
      <trkpt lat="48.91104" lon="-0.451">
        <ele>130</ele>
        <time>2019-01-14T18:03:41+01:00</time>
      </trkpt>
      <trkpt lat="48.91077" lon="-0.45096">
        <ele>130</ele>
        <time>2019-01-14T18:03:46+01:00</time>
      </trkpt>
      <trkpt lat="48.91053" lon="-0.45085">
        <ele>134</ele>
        <time>2019-01-14T18:03:51+01:00</time>
      </trkpt>
      <trkpt lat="48.9101" lon="-0.45054">
        <ele>141</ele>
        <time>2019-01-14T18:03:56+01:00</time>
      </trkpt>
      <trkpt lat="48.90988" lon="-0.45065">
        <ele>145</ele>
        <time>2019-01-14T18:04:01+01:00</time>
      </trkpt>
      <trkpt lat="48.90966" lon="-0.45081">
        <ele>146</ele>
        <time>2019-01-14T18:04:06+01:00</time>
      </trkpt>
      <trkpt lat="48.90953" lon="-0.45133">
        <ele>146</ele>
        <time>2019-01-14T18:04:11+01:00</time>
      </trkpt>
      <trkpt lat="48.90943" lon="-0.45168">
        <ele>145</ele>
        <time>2019-01-14T18:04:16+01:00</time>
      </trkpt>
      <trkpt lat="48.9094" lon="-0.45288">
        <ele>145</ele>
        <time>2019-01-14T18:04:21+01:00</time>
      </trkpt>
      <trkpt lat="48.90949" lon="-0.45341">
        <ele>146</ele>
        <time>2019-01-14T18:04:26+01:00</time>
      </trkpt>
      <trkpt lat="48.90946" lon="-0.45393">
        <ele>145</ele>
        <time>2019-01-14T18:04:31+01:00</time>
      </trkpt>
      <trkpt lat="48.90981" lon="-0.45503">
        <ele>141</ele>
        <time>2019-01-14T18:04:36+01:00</time>
      </trkpt>
      <trkpt lat="48.91033" lon="-0.45608">
        <ele>132</ele>
        <time>2019-01-14T18:04:41+01:00</time>
      </trkpt>
      <trkpt lat="48.91031" lon="-0.4565">
        <ele>125</ele>
        <time>2019-01-14T18:04:46+01:00</time>
      </trkpt>
      <trkpt lat="48.91027" lon="-0.45665">
        <ele>120</ele>
        <time>2019-01-14T18:04:51+01:00</time>
      </trkpt>
      <trkpt lat="48.9103" lon="-0.45679">
        <ele>119</ele>
        <time>2019-01-14T18:04:56+01:00</time>
      </trkpt>
      <trkpt lat="48.91039" lon="-0.45691">
        <ele>121</ele>
        <time>2019-01-14T18:05:01+01:00</time>
      </trkpt>
      <trkpt lat="48.91046" lon="-0.4571">
        <ele>121</ele>
        <time>2019-01-14T18:05:06+01:00</time>
      </trkpt>
      <trkpt lat="48.91052" lon="-0.45756">
        <ele>117</ele>
        <time>2019-01-14T18:05:11+01:00</time>
      </trkpt>
      <trkpt lat="48.91063" lon="-0.45787">
        <ele>120</ele>
        <time>2019-01-14T18:05:16+01:00</time>
      </trkpt>
      <trkpt lat="48.91067" lon="-0.45842">
        <ele>116</ele>
        <time>2019-01-14T18:05:21+01:00</time>
      </trkpt>
      <trkpt lat="48.91074" lon="-0.45915">
        <ele>117</ele>
        <time>2019-01-14T18:05:26+01:00</time>
      </trkpt>
      <trkpt lat="48.91075" lon="-0.45941">
        <ele>117</ele>
        <time>2019-01-14T18:05:31+01:00</time>
      </trkpt>
      <trkpt lat="48.91085" lon="-0.46049">
        <ele>114</ele>
        <time>2019-01-14T18:05:36+01:00</time>
      </trkpt>
      <trkpt lat="48.91094" lon="-0.46062">
        <ele>112</ele>
        <time>2019-01-14T18:05:41+01:00</time>
      </trkpt>
      <trkpt lat="48.91104" lon="-0.46078">
        <ele>111</ele>
        <time>2019-01-14T18:05:46+01:00</time>
      </trkpt>
      <trkpt lat="48.91106" lon="-0.46097">
        <ele>109</ele>
        <time>2019-01-14T18:05:51+01:00</time>
      </trkpt>
      <trkpt lat="48.91101" lon="-0.46128">
        <ele>106</ele>
        <time>2019-01-14T18:05:56+01:00</time>
      </trkpt>
      <trkpt lat="48.91101" lon="-0.46157">
        <ele>103</ele>
        <time>2019-01-14T18:06:01+01:00</time>
      </trkpt>
      <trkpt lat="48.91109" lon="-0.46171">
        <ele>103</ele>
        <time>2019-01-14T18:06:06+01:00</time>
      </trkpt>
      <trkpt lat="48.91116" lon="-0.46189">
        <ele>104</ele>
        <time>2019-01-14T18:06:11+01:00</time>
      </trkpt>
      <trkpt lat="48.91125" lon="-0.46218">
        <ele>104</ele>
        <time>2019-01-14T18:06:16+01:00</time>
      </trkpt>
      <trkpt lat="48.91126" lon="-0.46241">
        <ele>103</ele>
        <time>2019-01-14T18:06:21+01:00</time>
      </trkpt>
      <trkpt lat="48.91119" lon="-0.4629">
        <ele>99</ele>
        <time>2019-01-14T18:06:26+01:00</time>
      </trkpt>
      <trkpt lat="48.91118" lon="-0.46307">
        <ele>98</ele>
        <time>2019-01-14T18:06:31+01:00</time>
      </trkpt>
      <trkpt lat="48.9111" lon="-0.4633">
        <ele>95</ele>
        <time>2019-01-14T18:06:36+01:00</time>
      </trkpt>
      <trkpt lat="48.91119" lon="-0.4635">
        <ele>97</ele>
        <time>2019-01-14T18:06:41+01:00</time>
      </trkpt>
      <trkpt lat="48.91124" lon="-0.46365">
        <ele>98</ele>
        <time>2019-01-14T18:06:46+01:00</time>
      </trkpt>
      <trkpt lat="48.91126" lon="-0.46379">
        <ele>98</ele>
        <time>2019-01-14T18:06:51+01:00</time>
      </trkpt>
      <trkpt lat="48.91126" lon="-0.46431">
        <ele>98</ele>
        <time>2019-01-14T18:06:56+01:00</time>
      </trkpt>
      <trkpt lat="48.91121" lon="-0.46449">
        <ele>96</ele>
        <time>2019-01-14T18:07:01+01:00</time>
      </trkpt>
      <trkpt lat="48.91121" lon="-0.46487">
        <ele>95</ele>
        <time>2019-01-14T18:07:06+01:00</time>
      </trkpt>
      <trkpt lat="48.91127" lon="-0.4651">
        <ele>96</ele>
        <time>2019-01-14T18:07:11+01:00</time>
      </trkpt>
      <trkpt lat="48.91126" lon="-0.46539">
        <ele>94</ele>
        <time>2019-01-14T18:07:16+01:00</time>
      </trkpt>
      <trkpt lat="48.91125" lon="-0.4656">
        <ele>93</ele>
        <time>2019-01-14T18:07:21+01:00</time>
      </trkpt>
      <trkpt lat="48.9111" lon="-0.46574">
        <ele>89</ele>
        <time>2019-01-14T18:07:26+01:00</time>
      </trkpt>
      <trkpt lat="48.91108" lon="-0.46593">
        <ele>88</ele>
        <time>2019-01-14T18:07:31+01:00</time>
      </trkpt>
      <trkpt lat="48.91119" lon="-0.46598">
        <ele>90</ele>
        <time>2019-01-14T18:07:36+01:00</time>
      </trkpt>
      <trkpt lat="48.91127" lon="-0.46601">
        <ele>92</ele>
        <time>2019-01-14T18:07:41+01:00</time>
      </trkpt>
      <trkpt lat="48.9113" lon="-0.46614">
        <ele>92</ele>
        <time>2019-01-14T18:07:46+01:00</time>
      </trkpt>
      <trkpt lat="48.91135" lon="-0.46706">
        <ele>93</ele>
        <time>2019-01-14T18:07:51+01:00</time>
      </trkpt>
      <trkpt lat="48.91132" lon="-0.46748">
        <ele>92</ele>
        <time>2019-01-14T18:07:56+01:00</time>
      </trkpt>
      <trkpt lat="48.9113" lon="-0.46769">
        <ele>91</ele>
        <time>2019-01-14T18:08:01+01:00</time>
      </trkpt>
      <trkpt lat="48.91115" lon="-0.46797">
        <ele>86</ele>
        <time>2019-01-14T18:08:06+01:00</time>
      </trkpt>
      <trkpt lat="48.9111" lon="-0.46837">
        <ele>85</ele>
        <time>2019-01-14T18:08:11+01:00</time>
      </trkpt>
      <trkpt lat="48.9111" lon="-0.4685">
        <ele>86</ele>
        <time>2019-01-14T18:08:16+01:00</time>
      </trkpt>
      <trkpt lat="48.91113" lon="-0.46862">
        <ele>88</ele>
        <time>2019-01-14T18:08:21+01:00</time>
      </trkpt>
      <trkpt lat="48.9111" lon="-0.46877">
        <ele>89</ele>
        <time>2019-01-14T18:08:26+01:00</time>
      </trkpt>
      <trkpt lat="48.91095" lon="-0.46887">
        <ele>87</ele>
        <time>2019-01-14T18:08:31+01:00</time>
      </trkpt>
      <trkpt lat="48.91095" lon="-0.46901">
        <ele>88</ele>
        <time>2019-01-14T18:08:36+01:00</time>
      </trkpt>
      <trkpt lat="48.91091" lon="-0.46939">
        <ele>89</ele>
        <time>2019-01-14T18:08:41+01:00</time>
      </trkpt>
      <trkpt lat="48.91084" lon="-0.46966">
        <ele>87</ele>
        <time>2019-01-14T18:08:46+01:00</time>
      </trkpt>
      <trkpt lat="48.91093" lon="-0.46987">
        <ele>88</ele>
        <time>2019-01-14T18:08:51+01:00</time>
      </trkpt>
      <trkpt lat="48.91124" lon="-0.47023">
        <ele>88</ele>
        <time>2019-01-14T18:08:56+01:00</time>
      </trkpt>
      <trkpt lat="48.91134" lon="-0.47033">
        <ele>89</ele>
        <time>2019-01-14T18:09:01+01:00</time>
      </trkpt>
      <trkpt lat="48.91155" lon="-0.47074">
        <ele>86</ele>
        <time>2019-01-14T18:09:06+01:00</time>
      </trkpt>
      <trkpt lat="48.91181" lon="-0.47092">
        <ele>82</ele>
        <time>2019-01-14T18:09:11+01:00</time>
      </trkpt>
      <trkpt lat="48.91214" lon="-0.4709">
        <ele>75</ele>
        <time>2019-01-14T18:09:16+01:00</time>
      </trkpt>
      <trkpt lat="48.91248" lon="-0.47141">
        <ele>64</ele>
        <time>2019-01-14T18:09:21+01:00</time>
      </trkpt>
      <trkpt lat="48.91273" lon="-0.47193">
        <ele>56</ele>
        <time>2019-01-14T18:09:26+01:00</time>
      </trkpt>
      <trkpt lat="48.91275" lon="-0.47205">
        <ele>55</ele>
        <time>2019-01-14T18:09:31+01:00</time>
      </trkpt>
      <trkpt lat="48.91278" lon="-0.47224">
        <ele>54</ele>
        <time>2019-01-14T18:09:36+01:00</time>
      </trkpt>
      <trkpt lat="48.9128" lon="-0.47243">
        <ele>53</ele>
        <time>2019-01-14T18:09:41+01:00</time>
      </trkpt>
      <trkpt lat="48.91293" lon="-0.47248">
        <ele>52</ele>
        <time>2019-01-14T18:09:46+01:00</time>
      </trkpt>
      <trkpt lat="48.91334" lon="-0.47229">
        <ele>50</ele>
        <time>2019-01-14T18:09:51+01:00</time>
      </trkpt>
      <trkpt lat="48.91346" lon="-0.47229">
        <ele>49</ele>
        <time>2019-01-14T18:09:56+01:00</time>
      </trkpt>
      <trkpt lat="48.91346" lon="-0.47274">
        <ele>48</ele>
        <time>2019-01-14T18:10:01+01:00</time>
      </trkpt>
      <trkpt lat="48.91355" lon="-0.47307">
        <ele>45</ele>
        <time>2019-01-14T18:10:06+01:00</time>
      </trkpt>
      <trkpt lat="48.91368" lon="-0.47331">
        <ele>43</ele>
        <time>2019-01-14T18:10:11+01:00</time>
      </trkpt>
      <trkpt lat="48.91381" lon="-0.47366">
        <ele>41</ele>
        <time>2019-01-14T18:10:16+01:00</time>
      </trkpt>
      <trkpt lat="48.91379" lon="-0.47381">
        <ele>41</ele>
        <time>2019-01-14T18:10:21+01:00</time>
      </trkpt>
      <trkpt lat="48.91397" lon="-0.4738">
        <ele>40</ele>
        <time>2019-01-14T18:10:26+01:00</time>
      </trkpt>
      <trkpt lat="48.91456" lon="-0.47364">
        <ele>40</ele>
        <time>2019-01-14T18:10:31+01:00</time>
      </trkpt>
      <trkpt lat="48.91496" lon="-0.47366">
        <ele>40</ele>
        <time>2019-01-14T18:10:36+01:00</time>
      </trkpt>
      <trkpt lat="48.91581" lon="-0.47358">
        <ele>41</ele>
        <time>2019-01-14T18:10:41+01:00</time>
      </trkpt>
      <trkpt lat="48.9159" lon="-0.47357">
        <ele>41</ele>
        <time>2019-01-14T18:10:46+01:00</time>
      </trkpt>
      <trkpt lat="48.91601" lon="-0.47358">
        <ele>41</ele>
        <time>2019-01-14T18:10:51+01:00</time>
      </trkpt>
      <trkpt lat="48.91628" lon="-0.47356">
        <ele>40</ele>
        <time>2019-01-14T18:10:56+01:00</time>
      </trkpt>
      <trkpt lat="48.91661" lon="-0.4735">
        <ele>39</ele>
        <time>2019-01-14T18:11:01+01:00</time>
      </trkpt>
      <trkpt lat="48.91674" lon="-0.47358">
        <ele>38</ele>
        <time>2019-01-14T18:11:06+01:00</time>
      </trkpt>
      <trkpt lat="48.9166" lon="-0.474">
        <ele>38</ele>
        <time>2019-01-14T18:11:11+01:00</time>
      </trkpt>
      <trkpt lat="48.91657" lon="-0.47413">
        <ele>37</ele>
        <time>2019-01-14T18:11:16+01:00</time>
      </trkpt>
      <trkpt lat="48.91653" lon="-0.47439">
        <ele>36</ele>
        <time>2019-01-14T18:11:21+01:00</time>
      </trkpt>
      <trkpt lat="48.91649" lon="-0.47577">
        <ele>35</ele>
        <time>2019-01-14T18:11:26+01:00</time>
      </trkpt>
      <trkpt lat="48.91648" lon="-0.47645">
        <ele>44</ele>
        <time>2019-01-14T18:11:31+01:00</time>
      </trkpt>
      <trkpt lat="48.91643" lon="-0.47652">
        <ele>45</ele>
        <time>2019-01-14T18:11:36+01:00</time>
      </trkpt>
      <trkpt lat="48.91605" lon="-0.47648">
        <ele>45</ele>
        <time>2019-01-14T18:11:41+01:00</time>
      </trkpt>
      <trkpt lat="48.91564" lon="-0.47641">
        <ele>46</ele>
        <time>2019-01-14T18:11:46+01:00</time>
      </trkpt>
      <trkpt lat="48.9149" lon="-0.47619">
        <ele>46</ele>
        <time>2019-01-14T18:11:51+01:00</time>
      </trkpt>
      <trkpt lat="48.91466" lon="-0.47614">
        <ele>45</ele>
        <time>2019-01-14T18:11:56+01:00</time>
      </trkpt>
      <trkpt lat="48.91446" lon="-0.47612">
        <ele>46</ele>
        <time>2019-01-14T18:12:01+01:00</time>
      </trkpt>
      <trkpt lat="48.91403" lon="-0.47615">
        <ele>47</ele>
        <time>2019-01-14T18:12:06+01:00</time>
      </trkpt>
      <trkpt lat="48.914" lon="-0.47614">
        <ele>47</ele>
        <time>2019-01-14T18:12:11+01:00</time>
      </trkpt>
    </trkseg>
  </trk>
</gpx>